sensor_id;sensor_type;location;lat;lon;timestamp;P1;durP1;ratioP1;P2;durP2;ratioP2
15921;SDS011;8060;50.948;3.146;2023-04-01T06:12:46;7.07;;;4.37;;
15921;SDS011;8060;50.948;3.146;2023-04-01T06:15:23;9.53;;;5.20;;
15921;SDS011;8060;50.948;3.146;2023-04-01T06:27:36;7.30;;;4.10;;
15921;SDS011;8060;50.948;3.146;2023-04-01T06:30:24;8.83;;;4.27;;
15921;SDS011;8060;50.948;3.146;2023-04-01T06:33:07;8.47;;;5.13;;
15921;SDS011;8060;50.948;3.146;2023-04-01T06:41:50;10.13;;;4.80;;
15921;SDS011;8060;50.948;3.146;2023-04-01T06:44:34;10.60;;;4.33;;
15921;SDS011;8060;50.948;3.146;2023-04-01T06:47:10;7.13;;;4.57;;
15921;SDS011;8060;50.948;3.146;2023-04-01T06:49:51;11.30;;;4.57;;
15921;SDS011;8060;50.948;3.146;2023-04-01T06:52:25;7.47;;;4.17;;
15921;SDS011;8060;50.948;3.146;2023-04-01T06:55:02;8.17;;;3.90;;
15921;SDS011;8060;50.948;3.146;2023-04-01T06:57:49;8.00;;;3.50;;
15921;SDS011;8060;50.948;3.146;2023-04-01T07:00:22;5.20;;;3.53;;
15921;SDS011;8060;50.948;3.146;2023-04-01T07:02:59;8.20;;;3.53;;
15921;SDS011;8060;50.948;3.146;2023-04-01T07:05:34;5.47;;;2.83;;
15921;SDS011;8060;50.948;3.146;2023-04-01T07:08:04;5.57;;;3.00;;
15921;SDS011;8060;50.948;3.146;2023-04-01T07:10:40;7.33;;;3.00;;
15921;SDS011;8060;50.948;3.146;2023-04-01T07:13:16;5.60;;;3.10;;
15921;SDS011;8060;50.948;3.146;2023-04-01T07:15:51;5.30;;;3.27;;
15921;SDS011;8060;50.948;3.146;2023-04-01T07:18:29;5.53;;;3.30;;
15921;SDS011;8060;50.948;3.146;2023-04-01T07:21:03;7.20;;;3.10;;
15921;SDS011;8060;50.948;3.146;2023-04-01T07:23:38;9.33;;;3.33;;
15921;SDS011;8060;50.948;3.146;2023-04-01T07:26:13;4.23;;;2.87;;
15921;SDS011;8060;50.948;3.146;2023-04-01T07:28:46;6.57;;;3.37;;
15921;SDS011;8060;50.948;3.146;2023-04-01T07:31:18;4.97;;;2.73;;
15921;SDS011;8060;50.948;3.146;2023-04-01T07:33:54;8.13;;;3.40;;
15921;SDS011;8060;50.948;3.146;2023-04-01T07:36:30;6.43;;;3.37;;
15921;SDS011;8060;50.948;3.146;2023-04-01T07:39:09;5.43;;;3.10;;
15921;SDS011;8060;50.948;3.146;2023-04-01T07:41:51;6.23;;;3.23;;
15921;SDS011;8060;50.948;3.146;2023-04-01T07:44:29;4.00;;;2.80;;
15921;SDS011;8060;50.948;3.146;2023-04-01T07:47:14;5.40;;;2.30;;
15921;SDS011;8060;50.948;3.146;2023-04-01T07:49:57;5.60;;;2.30;;
15921;SDS011;8060;50.948;3.146;2023-04-01T07:52:38;5.40;;;2.80;;
15921;SDS011;8060;50.948;3.146;2023-04-01T07:55:14;4.17;;;2.60;;
15921;SDS011;8060;50.948;3.146;2023-04-01T07:57:49;9.23;;;2.70;;
15921;SDS011;8060;50.948;3.146;2023-04-01T08:00:24;5.43;;;2.90;;
15921;SDS011;8060;50.948;3.146;2023-04-01T08:03:02;5.20;;;3.10;;
15921;SDS011;8060;50.948;3.146;2023-04-01T08:05:45;10.90;;;3.10;;
15921;SDS011;8060;50.948;3.146;2023-04-01T08:08:23;7.47;;;2.80;;
15921;SDS011;8060;50.948;3.146;2023-04-01T08:11:02;6.53;;;2.57;;
15921;SDS011;8060;50.948;3.146;2023-04-01T08:13:41;6.77;;;3.07;;
15921;SDS011;8060;50.948;3.146;2023-04-01T08:16:20;7.60;;;3.13;;
15921;SDS011;8060;50.948;3.146;2023-04-01T08:19:00;6.83;;;2.97;;
15921;SDS011;8060;50.948;3.146;2023-04-01T08:21:35;7.20;;;3.23;;
15921;SDS011;8060;50.948;3.146;2023-04-01T08:24:11;8.23;;;3.33;;
15921;SDS011;8060;50.948;3.146;2023-04-01T08:26:49;7.00;;;3.33;;
15921;SDS011;8060;50.948;3.146;2023-04-01T08:29:21;7.63;;;3.33;;
15921;SDS011;8060;50.948;3.146;2023-04-01T08:31:56;6.70;;;2.87;;
15921;SDS011;8060;50.948;3.146;2023-04-01T08:34:28;9.03;;;3.00;;
15921;SDS011;8060;50.948;3.146;2023-04-01T08:37:02;7.87;;;3.60;;
15921;SDS011;8060;50.948;3.146;2023-04-01T08:39:35;6.13;;;3.13;;
15921;SDS011;8060;50.948;3.146;2023-04-01T08:42:12;10.33;;;3.90;;
15921;SDS011;8060;50.948;3.146;2023-04-01T08:45:05;5.33;;;3.10;;
15921;SDS011;8060;50.948;3.146;2023-04-01T08:47:52;6.17;;;2.70;;
15921;SDS011;8060;50.948;3.146;2023-04-01T08:50:49;6.20;;;3.03;;
15921;SDS011;8060;50.948;3.146;2023-04-01T08:53:46;4.97;;;2.97;;
15921;SDS011;8060;50.948;3.146;2023-04-01T08:56:26;5.47;;;2.43;;
